Norwegian Sun — C6RN3 — position and weather

sailwx.info

Track history (hours):
 
Tides and Currents Weather Stations Pressure Air Temp Water Temp Dewpoint Dewpoint Depression Visibility Wind Speed Wind Dir Waves Ship Positions

Norwegian Sun

Operator: Norwegian Cruise Line

Last reported at 2018-Aug-14 07:46 UTC. Time now 2018-Aug-16 20:17 UTC.
Position N 25°25' W 079°39'.

Type: Passenger vessel. MMSI: 311109000.

Date/timePositionNaut miles runAvg speedWind from/ knotsBaromVisibWave heightAir tempDewpointWater temp
2018-Aug-14 07:46N 25°25' W 079°39'518.0
2018-Aug-14 07:30N 25°30' W 079°38'917.9
2018-Aug-14 07:00N 25°38' W 079°37'917.8
2018-Aug-14 06:31N 25°47' W 079°36'917.9
2018-Aug-14 06:00N 25°56' W 079°34'918.0
2018-Aug-14 05:31N 26°05' W 079°32'918.1
2018-Aug-14 05:00N 26°14' W 079°30'  
2018-Aug-10 23:16N 27°50' W 080°03'48 2.4
2018-Aug-10 03:30N 27°07' W 079°40'4514.9
2018-Aug-10 00:29N 26°23' W 079°29'815.8
2018-Aug-10 00:00N 26°16' W 079°31'1020.1
2018-Aug-09 23:30N 26°06' W 079°33'1020.3
2018-Aug-09 23:00N 25°56' W 079°35'1020.5
2018-Aug-09 22:30N 25°46' W 079°36'1020.5
2018-Aug-09 22:00N 25°36' W 079°38'1020.3
2018-Aug-09 21:30N 25°25' W 079°39'  
2018-Aug-07 07:46N 25°20' W 079°39'518.7
2018-Aug-07 07:29N 25°25' W 079°38'918.6
2018-Aug-07 07:00N 25°34' W 079°36'918.4
2018-Aug-07 06:30N 25°43' W 079°35'918.3
2018-Aug-07 06:00N 25°52' W 079°34'918.3
2018-Aug-07 05:30N 26°01' W 079°33'918.3
2018-Aug-07 05:00N 26°10' W 079°32'918.2
2018-Aug-07 04:29N 26°20' W 079°30'  
Track history (hours):
 
Tides and Currents Weather Stations Pressure Air Temp Water Temp Dewpoint Dewpoint Depression Visibility Wind Speed Wind Dir Waves Ship Positions

Norwegian Sun

Operator: Norwegian Cruise Line

Last reported at 2018-Aug-14 07:46 UTC. Time now 2018-Aug-16 20:17 UTC.
Position N 25°25' W 079°39'.

Type: Passenger vessel. MMSI: 311109000.

Date/timePositionNaut miles runAvg speedWind from/ knotsBaromVisibWave heightAir tempDewpointWater temp
2018-Aug-14 07:46N 25°25' W 079°39'518.0
2018-Aug-14 07:30N 25°30' W 079°38'917.9
2018-Aug-14 07:00N 25°38' W 079°37'917.8
2018-Aug-14 06:31N 25°47' W 079°36'917.9
2018-Aug-14 06:00N 25°56' W 079°34'918.0
2018-Aug-14 05:31N 26°05' W 079°32'918.1
2018-Aug-14 05:00N 26°14' W 079°30'  
2018-Aug-10 23:16N 27°50' W 080°03'48 2.4
2018-Aug-10 03:30N 27°07' W 079°40'4514.9
2018-Aug-10 00:29N 26°23' W 079°29'815.8
2018-Aug-10 00:00N 26°16' W 079°31'1020.1
2018-Aug-09 23:30N 26°06' W 079°33'1020.3
2018-Aug-09 23:00N 25°56' W 079°35'1020.5
2018-Aug-09 22:30N 25°46' W 079°36'1020.5
2018-Aug-09 22:00N 25°36' W 079°38'1020.3
2018-Aug-09 21:30N 25°25' W 079°39'  
2018-Aug-07 07:46N 25°20' W 079°39'518.7
2018-Aug-07 07:29N 25°25' W 079°38'918.6
2018-Aug-07 07:00N 25°34' W 079°36'918.4
2018-Aug-07 06:30N 25°43' W 079°35'918.3
2018-Aug-07 06:00N 25°52' W 079°34'918.3
2018-Aug-07 05:30N 26°01' W 079°33'918.3
2018-Aug-07 05:00N 26°10' W 079°32'918.2
2018-Aug-07 04:29N 26°20' W 079°30'  

Dump ship's entire track history